createdAt,value
2019-01-09T00:01:25.253Z,101587.96
2019-01-09T00:03:54.163Z,101582.08
2019-01-09T00:06:24.591Z,101585.19
2019-01-09T00:08:53.361Z,101591.06
2019-01-09T00:11:23.374Z,101588.95
2019-01-09T00:13:52.521Z,101591.20
2019-01-09T00:16:21.438Z,101583.28
2019-01-09T00:18:50.294Z,101586.14
2019-01-09T00:21:19.366Z,101580.10
2019-01-09T00:23:48.809Z,101577.86
2019-01-09T00:26:17.657Z,101586.30
2019-01-09T00:28:47.197Z,101581.50
2019-01-09T00:31:15.984Z,101585.80
2019-01-09T00:33:44.774Z,101589.35
2019-01-09T00:36:13.576Z,101585.71
2019-01-09T00:38:42.347Z,101585.95
2019-01-09T00:41:11.178Z,101590.25
2019-01-09T00:43:40.062Z,101582.27
2019-01-09T00:46:10.062Z,101585.07
2019-01-09T00:48:38.855Z,101581.13
2019-01-09T00:51:07.914Z,101581.08
2019-01-09T00:53:36.750Z,101581.45
2019-01-09T00:56:05.585Z,101580.00
2019-01-09T00:58:35.449Z,101578.59
2019-01-09T01:01:04.236Z,101577.38
2019-01-09T01:04:47.987Z,101579.62
2019-01-09T01:08:29.528Z,101585.45
2019-01-09T01:11:11.486Z,101596.61
2019-01-09T01:16:08.947Z,101588.59
2019-01-09T01:18:49.324Z,101580.17
2019-01-09T01:21:23.598Z,101587.69
2019-01-09T01:24:17.351Z,101602.33
2019-01-09T01:26:54.703Z,101600.88
2019-01-09T01:31:32.579Z,101599.23
2019-01-09T01:34:13.648Z,101596.97
2019-01-09T01:38:56.927Z,101606.23
2019-01-09T01:41:37.596Z,101630.25
2019-01-09T01:44:32.134Z,101646.07
2019-01-09T01:47:14.075Z,101662.39
2019-01-09T01:49:55.890Z,101648.95
2019-01-09T01:52:35.203Z,101649.41
2019-01-09T01:55:17.583Z,101637.63
2019-01-09T01:58:03.660Z,101636.05
2019-01-09T02:00:46.752Z,101622.33
2019-01-09T02:03:36.366Z,101627.06
2019-01-09T02:06:26.199Z,101629.77
2019-01-09T02:09:06.521Z,101638.94
2019-01-09T02:11:45.275Z,101640.22
2019-01-09T02:14:24.561Z,101648.25
2019-01-09T02:17:04.112Z,101645.20
2019-01-09T02:19:38.664Z,101660.86
2019-01-09T02:23:16.372Z,101661.67
2019-01-09T02:26:03.074Z,101664.33
2019-01-09T02:28:43.541Z,101667.44
2019-01-09T02:31:28.751Z,101657.84
2019-01-09T02:33:57.506Z,101667.06
2019-01-09T02:36:26.279Z,101662.30
2019-01-09T02:38:55.087Z,101663.22
2019-01-09T02:41:23.867Z,101659.88
2019-01-09T02:43:53.627Z,101658.66
2019-01-09T02:46:22.440Z,101647.44
2019-01-09T02:48:51.312Z,101651.95
2019-01-09T02:51:20.132Z,101653.87
2019-01-09T02:53:48.963Z,101658.33
2019-01-09T02:56:18.400Z,101662.01
2019-01-09T02:58:47.212Z,101670.47
2019-01-09T03:01:16.077Z,101676.95
2019-01-09T03:03:44.903Z,101677.02
2019-01-09T03:06:22.765Z,101670.30
2019-01-09T03:08:43.392Z,101673.44
2019-01-09T03:11:12.160Z,101670.87
2019-01-09T03:13:42.316Z,101671.28
2019-01-09T03:16:11.127Z,101668.78
2019-01-09T03:18:39.879Z,101670.80
2019-01-09T03:21:08.731Z,101661.52
2019-01-09T03:23:37.564Z,101661.95
2019-01-09T03:26:07.552Z,101659.45
2019-01-09T03:28:37.117Z,101660.80
2019-01-09T03:31:05.910Z,101658.13
2019-01-09T03:33:34.819Z,101664.53
2019-01-09T03:36:03.668Z,101661.13
2019-01-09T03:38:34.575Z,101656.77
2019-01-09T03:41:03.380Z,101651.34
2019-01-09T03:43:32.320Z,101652.69
2019-01-09T03:46:01.119Z,101652.20
2019-01-09T03:48:29.997Z,101658.06
2019-01-09T03:50:59.508Z,101659.95
2019-01-09T03:53:29.099Z,101657.44
2019-01-09T03:55:57.922Z,101662.08
2019-01-09T03:58:26.694Z,101662.31
2019-01-09T04:00:55.498Z,101665.98
2019-01-09T04:03:24.498Z,101666.41
2019-01-09T04:05:53.141Z,101663.53
2019-01-09T04:08:21.967Z,101664.80
2019-01-09T04:10:50.820Z,101665.41
2019-01-09T04:13:19.598Z,101666.20
2019-01-09T04:15:48.385Z,101664.06
2019-01-09T04:18:17.216Z,101666.67
2019-01-09T04:20:46.032Z,101659.22
2019-01-09T04:23:14.799Z,101659.28
2019-01-09T04:25:44.405Z,101657.69
2019-01-09T04:28:13.905Z,101662.12
2019-01-09T04:30:42.772Z,101667.28
2019-01-09T04:33:11.566Z,101672.97
2019-01-09T04:35:40.344Z,101669.35
2019-01-09T04:38:09.954Z,101666.74
2019-01-09T04:40:38.761Z,101674.97
2019-01-09T04:43:08.052Z,101673.09
2019-01-09T04:45:36.950Z,101678.89
2019-01-09T04:48:05.722Z,101664.08
2019-01-09T04:50:34.519Z,101661.16
2019-01-09T04:53:03.318Z,101667.69
2019-01-09T04:55:32.199Z,101659.14
2019-01-09T04:58:00.990Z,101668.23
2019-01-09T05:00:29.781Z,101667.69
2019-01-09T05:02:59.665Z,101663.85
2019-01-09T05:05:28.455Z,101670.60
2019-01-09T05:07:57.255Z,101667.50
2019-01-09T05:10:26.063Z,101666.77
2019-01-09T05:12:55.359Z,101674.44
2019-01-09T05:15:24.267Z,101669.83
2019-01-09T05:17:54.484Z,101674.75
2019-01-09T05:20:23.327Z,101669.04
2019-01-09T05:22:52.261Z,101669.95
2019-01-09T05:25:21.110Z,101676.86
2019-01-09T05:27:49.913Z,101671.97
2019-01-09T05:30:18.739Z,101673.67
2019-01-09T05:32:47.520Z,101666.05
2019-01-09T05:35:16.292Z,101672.49
2019-01-09T05:37:45.207Z,101677.10
2019-01-09T05:40:14.111Z,101672.70
2019-01-09T05:42:43.027Z,101667.19
2019-01-09T05:45:12.839Z,101669.02
2019-01-09T05:47:41.690Z,101665.59
2019-01-09T05:50:10.825Z,101667.92
2019-01-09T05:52:39.732Z,101662.98
2019-01-09T05:55:08.596Z,101659.09
2019-01-09T05:57:37.742Z,101661.23
2019-01-09T06:00:07.487Z,101665.99
2019-01-09T06:02:37.224Z,101663.98
2019-01-09T06:05:06.712Z,101667.27
2019-01-09T06:07:35.580Z,101672.94
2019-01-09T06:10:04.475Z,101667.27
2019-01-09T06:12:34.480Z,101661.64
2019-01-09T06:15:03.354Z,101673.16
2019-01-09T06:17:32.297Z,101675.17
2019-01-09T06:20:01.124Z,101673.90
2019-01-09T06:22:29.903Z,101683.05
2019-01-09T06:24:58.775Z,101689.67
2019-01-09T06:27:28.514Z,101683.05
2019-01-09T06:29:57.364Z,101692.36
2019-01-09T06:32:26.602Z,101704.24
2019-01-09T06:34:55.431Z,101708.72
2019-01-09T06:37:27.684Z,101709.20
2019-01-09T06:39:53.227Z,101713.37
2019-01-09T06:42:22.055Z,101722.78
2019-01-09T06:44:50.896Z,101711.44
2019-01-09T06:47:19.699Z,101714.27
2019-01-09T06:49:48.476Z,101715.54
2019-01-09T06:52:17.895Z,101713.66
2019-01-09T06:54:47.340Z,101709.62
2019-01-09T06:57:16.131Z,101715.66
2019-01-09T06:59:45.011Z,101714.75
2019-01-09T07:02:13.900Z,101722.63
2019-01-09T07:04:44.718Z,101729.25
2019-01-09T07:07:11.571Z,101736.62
2019-01-09T07:09:41.198Z,101735.77
2019-01-09T07:12:11.242Z,101734.16
2019-01-09T07:14:40.105Z,101740.75
2019-01-09T07:17:09.672Z,101745.45
2019-01-09T07:19:38.534Z,101748.25
2019-01-09T07:22:07.819Z,101748.44
2019-01-09T07:24:36.935Z,101757.08
2019-01-09T07:27:05.749Z,101758.73
2019-01-09T07:29:35.623Z,101765.89
2019-01-09T07:32:04.483Z,101763.02
2019-01-09T07:34:33.356Z,101767.41
2019-01-09T07:37:03.206Z,101767.64
2019-01-09T07:39:32.002Z,101770.20
2019-01-09T07:42:00.819Z,101772.22
2019-01-09T07:44:30.089Z,101782.27
2019-01-09T07:46:58.890Z,101775.55
2019-01-09T07:49:27.663Z,101784.50
2019-01-09T07:51:56.655Z,101785.02
2019-01-09T07:54:25.938Z,101788.07
2019-01-09T07:56:54.728Z,101790.36
2019-01-09T07:59:23.555Z,101796.89
2019-01-09T08:01:52.365Z,101807.27
2019-01-09T08:04:21.174Z,101798.72
2019-01-09T08:06:50.069Z,101811.34
2019-01-09T08:09:19.592Z,101802.60
2019-01-09T08:11:49.652Z,101809.73
2019-01-09T08:14:18.431Z,101813.77
2019-01-09T08:16:47.219Z,101814.17
2019-01-09T08:19:16.135Z,101820.76
2019-01-09T08:21:45.520Z,101825.33
2019-01-09T08:24:14.426Z,101831.22
2019-01-09T08:26:43.844Z,101836.34
2019-01-09T08:29:12.627Z,101830.45
2019-01-09T08:31:41.410Z,101844.71
2019-01-09T08:34:10.218Z,101840.83
2019-01-09T08:36:39.026Z,101845.72
2019-01-09T08:39:07.944Z,101840.96
2019-01-09T08:41:37.585Z,101847.88
2019-01-09T08:44:06.442Z,101853.72
2019-01-09T08:46:35.380Z,101854.41
2019-01-09T08:49:04.200Z,101862.78
2019-01-09T08:51:33.128Z,101861.63
2019-01-09T08:54:01.926Z,101868.50
2019-01-09T08:56:30.933Z,101869.69
2019-01-09T08:59:01.245Z,101872.47
2019-01-09T09:01:29.999Z,101877.20
2019-01-09T09:04:02.519Z,101877.63
2019-01-09T09:06:31.320Z,101874.62
2019-01-09T09:09:00.122Z,101872.28
2019-01-09T09:11:28.896Z,101868.75
2019-01-09T09:13:57.716Z,101875.53
2019-01-09T09:16:26.541Z,101875.84
2019-01-09T09:18:55.318Z,101879.32
2019-01-09T09:21:24.169Z,101880.91
2019-01-09T09:23:54.044Z,101887.03
2019-01-09T09:26:25.068Z,101886.78
2019-01-09T09:28:53.866Z,101878.42
2019-01-09T09:31:22.717Z,101878.36
2019-01-09T09:33:51.492Z,101882.45
2019-01-09T09:36:20.307Z,101885.64
2019-01-09T09:38:49.137Z,101888.08
2019-01-09T09:41:17.940Z,101882.07
2019-01-09T09:43:46.722Z,101880.72
2019-01-09T09:46:16.043Z,101891.63
2019-01-09T09:48:45.011Z,101896.20
2019-01-09T09:51:13.802Z,101897.64
2019-01-09T09:53:42.655Z,101896.52
2019-01-09T09:56:11.482Z,101896.84
2019-01-09T09:58:40.254Z,101904.37
2019-01-09T10:01:09.950Z,101899.01
2019-01-09T10:03:38.766Z,101893.39
2019-01-09T10:06:07.618Z,101893.56
2019-01-09T10:08:36.512Z,101891.36
2019-01-09T10:11:05.744Z,101891.93
2019-01-09T10:13:34.528Z,101888.09
2019-01-09T10:16:03.384Z,101892.11
2019-01-09T10:18:32.154Z,101888.76
2019-01-09T10:21:01.002Z,101893.12
2019-01-09T10:23:29.786Z,101898.53
2019-01-09T10:25:58.662Z,101888.01
2019-01-09T10:28:27.562Z,101888.20
2019-01-09T10:30:56.447Z,101894.37
2019-01-09T10:33:25.240Z,101893.97
2019-01-09T10:35:54.786Z,101897.16
2019-01-09T10:38:27.043Z,101900.16
2019-01-09T10:40:56.832Z,101900.88
2019-01-09T10:43:25.601Z,101900.94
2019-01-09T10:45:54.408Z,101899.43
2019-01-09T10:48:24.327Z,101901.27
2019-01-09T10:50:54.046Z,101901.48
2019-01-09T10:53:23.147Z,101893.67
2019-01-09T10:55:52.039Z,101885.67
2019-01-09T10:58:20.889Z,101882.22
2019-01-09T11:00:51.744Z,101896.17
2019-01-09T11:03:20.576Z,101891.06
2019-01-09T11:05:49.414Z,101899.22
2019-01-09T11:08:18.283Z,101891.27
2019-01-09T11:10:47.144Z,101909.92
2019-01-09T11:13:16.971Z,101892.88
2019-01-09T11:15:45.817Z,101888.52
2019-01-09T11:18:14.596Z,101898.37
2019-01-09T11:20:43.546Z,101896.91
2019-01-09T11:23:12.395Z,101900.94
2019-01-09T11:25:41.218Z,101897.70
2019-01-09T11:28:11.056Z,101889.23
2019-01-09T11:30:39.970Z,101914.84
2019-01-09T11:33:08.858Z,101888.55
2019-01-09T11:35:37.687Z,101893.48
2019-01-09T11:38:06.462Z,101879.67
2019-01-09T11:40:35.327Z,101890.27
2019-01-09T11:43:04.125Z,101883.17
2019-01-09T11:45:32.972Z,101893.00
2019-01-09T11:48:01.746Z,101885.99
2019-01-09T11:50:32.899Z,101895.20
2019-01-09T11:53:01.752Z,101893.19
2019-01-09T11:55:30.612Z,101896.74
2019-01-09T11:57:59.555Z,101895.02
2019-01-09T12:00:30.140Z,101895.36
2019-01-09T12:02:58.927Z,101895.56
2019-01-09T12:05:27.741Z,101890.79
2019-01-09T12:07:56.603Z,101909.31
2019-01-09T12:10:30.245Z,101897.66
2019-01-09T12:12:55.323Z,101898.80
2019-01-09T12:15:24.166Z,101898.52
2019-01-09T12:17:54.512Z,101895.41
2019-01-09T12:20:23.380Z,101900.09
2019-01-09T12:22:52.214Z,101897.43
2019-01-09T12:25:21.013Z,101895.94
2019-01-09T12:27:50.119Z,101894.41
2019-01-09T12:30:21.949Z,101894.60
2019-01-09T12:32:50.818Z,101891.51
2019-01-09T12:35:19.709Z,101887.53
2019-01-09T12:37:48.511Z,101887.52
2019-01-09T12:40:17.300Z,101882.61
2019-01-09T12:42:46.165Z,101886.22
2019-01-09T12:45:15.791Z,101879.65
2019-01-09T12:47:46.314Z,101889.16
2019-01-09T12:50:17.807Z,101891.95
2019-01-09T12:52:47.651Z,101892.06
2019-01-09T12:55:17.180Z,101894.32
2019-01-09T12:57:46.851Z,101899.43
2019-01-09T13:00:21.010Z,101900.84
2019-01-09T13:02:50.010Z,101903.92
2019-01-09T13:05:18.810Z,101901.53
2019-01-09T13:07:48.180Z,101905.86
2019-01-09T13:10:17.925Z,101910.30
2019-01-09T13:12:46.746Z,101911.86
2019-01-09T13:15:15.523Z,101920.36
2019-01-09T13:17:45.054Z,101918.00
2019-01-09T13:20:14.164Z,101942.64
2019-01-09T13:22:42.971Z,101933.42
2019-01-09T13:25:12.383Z,101929.46
2019-01-09T13:27:42.937Z,101927.44
2019-01-09T13:30:21.778Z,101940.02
2019-01-09T13:32:52.364Z,101940.44
2019-01-09T13:35:21.255Z,101939.31
2019-01-09T13:37:50.045Z,101951.02
2019-01-09T13:40:19.747Z,101943.33
2019-01-09T13:42:48.686Z,101947.22
2019-01-09T13:45:20.280Z,101937.59
2019-01-09T13:47:49.889Z,101952.42
2019-01-09T13:50:19.247Z,101957.53
2019-01-09T13:52:48.218Z,101962.30
2019-01-09T13:55:17.052Z,101959.03
2019-01-09T13:57:46.709Z,101961.16
2019-01-09T14:00:18.538Z,101964.48
2019-01-09T14:02:47.362Z,101962.86
2019-01-09T14:05:17.413Z,101961.31
2019-01-09T14:07:46.247Z,101966.66
2019-01-09T14:10:19.156Z,101971.47
2019-01-09T14:12:48.099Z,101960.73
2019-01-09T14:15:18.579Z,101963.27
2019-01-09T14:17:47.991Z,101971.28
2019-01-09T14:20:16.818Z,101978.28
2019-01-09T14:22:46.834Z,101979.66
2019-01-09T14:25:14.614Z,101987.84
2019-01-09T14:27:46.384Z,101994.08
2019-01-09T14:30:20.522Z,101993.00
2019-01-09T14:32:50.519Z,101997.15
2019-01-09T14:35:19.368Z,102008.50
2019-01-09T14:37:48.184Z,102013.95
2019-01-09T14:40:18.251Z,102013.62
2019-01-09T14:42:47.048Z,102017.48
2019-01-09T14:45:15.890Z,102026.86
2019-01-09T14:47:44.732Z,102018.10
2019-01-09T14:50:16.931Z,102020.76
2019-01-09T14:52:46.419Z,102027.11
2019-01-09T14:55:15.773Z,102030.97
2019-01-09T14:57:44.730Z,102032.12
2019-01-09T15:00:19.368Z,102037.28
2019-01-09T15:02:48.402Z,102036.58
2019-01-09T15:05:17.220Z,102038.48
2019-01-09T15:07:46.076Z,102039.09
2019-01-09T15:10:19.137Z,102040.91
2019-01-09T15:12:49.172Z,102049.63
2019-01-09T15:15:17.959Z,102033.59
2019-01-09T15:17:47.329Z,102046.06
2019-01-09T15:20:17.742Z,102059.23
2019-01-09T15:22:46.526Z,102046.12
2019-01-09T15:25:15.386Z,102038.38
2019-01-09T15:27:44.192Z,102049.02
2019-01-09T15:30:17.055Z,102045.63
2019-01-09T15:32:45.827Z,102045.53
2019-01-09T15:35:14.663Z,102050.44
2019-01-09T15:37:43.958Z,102054.73
2019-01-09T15:40:15.432Z,102054.13
2019-01-09T15:42:44.249Z,102063.55
2019-01-09T15:45:14.030Z,102065.27
2019-01-09T15:47:43.472Z,102067.60
2019-01-09T15:50:14.487Z,102066.38
2019-01-09T15:52:43.158Z,102066.81
2019-01-09T15:55:16.736Z,102072.38
2019-01-09T15:57:46.411Z,102065.65
2019-01-09T16:00:17.930Z,102076.77
2019-01-09T16:02:46.794Z,102075.53
2019-01-09T16:05:15.644Z,102077.02
2019-01-09T16:07:44.467Z,102082.95
2019-01-09T16:10:14.688Z,102081.59
2019-01-09T16:12:42.882Z,102099.62
2019-01-09T16:15:12.899Z,102104.81
2019-01-09T16:17:41.704Z,102099.87
2019-01-09T16:20:16.888Z,102094.10
2019-01-09T16:22:40.036Z,102097.09
2019-01-09T16:25:09.604Z,102100.59
2019-01-09T16:27:39.083Z,102103.45
2019-01-09T16:30:39.104Z,102099.66
2019-01-09T16:33:08.904Z,102101.77
2019-01-09T16:35:37.765Z,102102.51
2019-01-09T16:38:06.635Z,102105.50
2019-01-09T16:40:35.407Z,102098.34
2019-01-09T16:43:04.562Z,102088.13
2019-01-09T16:45:33.364Z,102099.36
2019-01-09T16:48:02.819Z,102098.64
2019-01-09T16:50:31.655Z,102098.00
2019-01-09T16:58:27.995Z,102100.25
2019-01-09T17:00:57.509Z,102106.34
2019-01-09T17:03:26.655Z,102106.89
2019-01-09T17:05:55.547Z,102111.34
2019-01-09T17:08:24.331Z,102115.61
2019-01-09T17:10:53.170Z,102115.47
2019-01-09T17:13:21.971Z,102117.85
2019-01-09T17:15:50.856Z,102120.28
2019-01-09T17:18:20.363Z,102123.44
2019-01-09T17:20:49.466Z,102126.19
2019-01-09T17:23:19.122Z,102117.80
2019-01-09T17:25:47.921Z,102121.84
2019-01-09T17:28:16.762Z,102131.59
2019-01-09T17:30:46.178Z,102137.27
2019-01-09T17:33:14.961Z,102136.95
2019-01-09T17:35:43.862Z,102143.03
2019-01-09T17:38:12.616Z,102145.27
2019-01-09T17:40:41.545Z,102144.72
2019-01-09T17:43:10.212Z,102152.64
2019-01-09T17:45:39.690Z,102156.16
2019-01-09T17:48:08.610Z,102163.52
2019-01-09T17:50:37.819Z,102168.14
2019-01-09T17:53:06.807Z,102171.80
2019-01-09T17:55:35.654Z,102177.89
2019-01-09T17:58:04.526Z,102176.05
2019-01-09T18:00:35.672Z,102177.77
2019-01-09T18:03:05.056Z,102191.91
2019-01-09T18:05:33.977Z,102186.45
2019-01-09T18:08:10.360Z,102193.41
2019-01-09T18:10:31.602Z,102198.56
2019-01-09T18:13:00.437Z,102205.19
2019-01-09T18:15:29.928Z,102204.86
2019-01-09T18:17:58.745Z,102201.38
2019-01-09T18:20:28.347Z,102210.89
2019-01-09T18:22:57.147Z,102207.09
2019-01-09T18:25:27.564Z,102197.23
2019-01-09T18:27:56.419Z,102208.24
2019-01-09T18:30:36.377Z,102204.61
2019-01-09T18:33:13.584Z,102207.69
2019-01-09T18:35:50.319Z,102208.24
2019-01-09T18:38:31.754Z,102225.45
2019-01-09T18:41:18.587Z,102216.30
2019-01-09T18:43:58.451Z,102225.48
2019-01-09T18:46:41.179Z,102229.50
2019-01-09T18:49:20.965Z,102236.09
2019-01-09T18:52:13.466Z,102236.82
2019-01-09T18:54:42.257Z,102248.56
2019-01-09T18:57:12.097Z,102250.78
2019-01-09T18:59:41.049Z,102246.55
2019-01-09T19:02:09.960Z,102251.52
2019-01-09T19:04:40.087Z,102256.27
2019-01-09T19:07:07.694Z,102258.47
2019-01-09T19:09:37.909Z,102251.52
2019-01-09T19:12:06.742Z,102257.19
2019-01-09T19:14:38.669Z,102259.56
2019-01-09T19:17:07.551Z,102259.93
2019-01-09T19:19:36.340Z,102259.78
2019-01-09T19:22:05.264Z,102254.66
2019-01-09T19:24:34.044Z,102251.36
2019-01-09T19:27:03.951Z,102249.34
2019-01-09T19:29:32.799Z,102265.30
2019-01-09T19:32:01.712Z,102268.22
2019-01-09T19:34:31.820Z,102266.39
2019-01-09T19:37:00.630Z,102268.43
2019-01-09T19:39:30.055Z,102268.24
2019-01-09T19:41:59.721Z,102270.80
2019-01-09T19:44:28.531Z,102266.41
2019-01-09T19:46:57.315Z,102277.23
2019-01-09T19:49:26.143Z,102265.91
2019-01-09T19:51:55.099Z,102268.84
2019-01-09T19:54:23.990Z,102270.66
2019-01-09T19:56:53.951Z,102278.19
2019-01-09T19:59:22.811Z,102280.39
2019-01-09T20:01:52.647Z,102285.69
2019-01-09T20:04:22.569Z,102292.85
2019-01-09T20:06:55.429Z,102288.63
2019-01-09T20:09:24.420Z,102288.11
2019-01-09T20:11:53.290Z,102287.77
2019-01-09T20:14:23.016Z,102291.78
2019-01-09T20:16:51.913Z,102301.66
2019-01-09T20:19:20.744Z,102308.42
2019-01-09T20:21:49.527Z,102310.28
2019-01-09T20:24:19.484Z,102301.13
2019-01-09T20:26:47.735Z,102307.53
2019-01-09T20:29:16.531Z,102314.48
2019-01-09T20:31:45.368Z,102318.11
2019-01-09T20:34:14.676Z,102316.31
2019-01-09T20:36:43.585Z,102316.48
2019-01-09T20:39:12.524Z,102314.69
2019-01-09T20:41:42.550Z,102318.15
2019-01-09T20:44:11.340Z,102319.64
2019-01-09T20:46:40.225Z,102318.92
2019-01-09T20:49:09.725Z,102321.30
2019-01-09T20:51:38.700Z,102322.00
2019-01-09T20:54:09.355Z,102327.52
2019-01-09T20:56:36.922Z,102327.52
2019-01-09T20:59:06.854Z,102330.45
2019-01-09T21:01:35.689Z,102329.32
2019-01-09T21:04:05.338Z,102326.97
2019-01-09T21:06:34.376Z,102330.23
2019-01-09T21:09:04.498Z,102335.20
2019-01-09T21:11:33.303Z,102330.80
2019-01-09T21:14:02.763Z,102336.07
2019-01-09T21:16:31.512Z,102330.95
2019-01-09T21:19:00.384Z,102339.55
2019-01-09T21:21:29.276Z,102336.45
2019-01-09T21:23:58.418Z,102344.13
2019-01-09T21:26:27.752Z,102340.30
2019-01-09T21:28:57.400Z,102349.06
2019-01-09T21:31:26.193Z,102346.87
2019-01-09T21:33:54.974Z,102343.75
2019-01-09T21:36:24.314Z,102357.83
2019-01-09T21:38:53.134Z,102363.71
2019-01-09T21:41:22.055Z,102365.52
2019-01-09T21:43:51.839Z,102363.36
2019-01-09T21:46:20.627Z,102359.68
2019-01-09T21:48:49.436Z,102371.41
2019-01-09T21:51:18.278Z,102379.45
2019-01-09T21:53:47.111Z,102377.80
2019-01-09T21:56:15.985Z,102387.29
2019-01-09T21:58:45.305Z,102386.56
2019-01-09T22:01:14.244Z,102384.73
2019-01-09T22:03:43.087Z,102385.07
2019-01-09T22:06:13.984Z,102395.52
2019-01-09T22:08:41.695Z,102395.36
2019-01-09T22:11:10.552Z,102389.68
2019-01-09T22:13:40.307Z,102396.44
2019-01-09T22:16:09.647Z,102394.44
2019-01-09T22:18:38.711Z,102400.84
2019-01-09T22:21:07.158Z,102394.95
2019-01-09T22:23:36.462Z,102400.63
2019-01-09T22:26:05.834Z,102402.27
2019-01-09T22:28:34.664Z,102406.11
2019-01-09T22:31:04.394Z,102401.36
2019-01-09T22:33:34.958Z,102399.73
2019-01-09T22:36:04.451Z,102399.20
2019-01-09T22:38:33.279Z,102398.65
2019-01-09T22:41:02.051Z,102396.81
2019-01-09T22:43:30.856Z,102402.69
2019-01-09T22:46:00.455Z,102403.42
2019-01-09T22:48:29.195Z,102399.59
2019-01-09T22:50:58.052Z,102402.52
2019-01-09T22:53:28.086Z,102398.88
2019-01-09T22:55:56.916Z,102401.24
2019-01-09T22:58:25.747Z,102403.44
2019-01-09T23:01:07.620Z,102406.72
2019-01-09T23:03:37.858Z,102407.28
2019-01-09T23:06:06.879Z,102404.18
2019-01-09T23:08:35.658Z,102410.03
2019-01-09T23:11:04.455Z,102404.55
2019-01-09T23:13:34.767Z,102412.59
2019-01-09T23:16:03.565Z,102416.08
2019-01-09T23:18:33.727Z,102411.73
2019-01-09T23:21:03.617Z,102404.77
2019-01-09T23:23:32.543Z,102413.73
2019-01-09T23:26:01.351Z,102411.73
2019-01-09T23:28:30.310Z,102417.94
2019-01-09T23:30:59.077Z,102422.34
2019-01-09T23:33:27.856Z,102420.70
2019-01-09T23:35:56.710Z,102416.86
2019-01-09T23:38:25.497Z,102423.26
2019-01-09T23:40:54.298Z,102418.14
2019-01-09T23:43:24.027Z,102421.78
2019-01-09T23:45:55.809Z,102425.26
2019-01-09T23:48:24.619Z,102426.90
2019-01-09T23:50:53.414Z,102416.67
2019-01-09T23:53:22.303Z,102420.86
2019-01-09T23:55:51.165Z,102421.06
2019-01-09T23:58:20.274Z,102423.98
